createdAt,value
2018-11-01T00:00:50.876Z,100013.00
2018-11-01T00:03:18.704Z,100017.00
2018-11-01T00:05:46.532Z,100013.00
2018-11-01T00:08:14.507Z,100003.00
2018-11-01T00:10:42.401Z,99993.00
2018-11-01T00:13:10.114Z,100008.00
2018-11-01T00:15:37.869Z,100002.00
2018-11-01T00:18:05.831Z,100008.00
2018-11-01T00:20:33.608Z,100001.00
2018-11-01T00:23:01.370Z,100001.00
2018-11-01T00:25:29.331Z,100008.00
2018-11-01T00:27:57.225Z,99999.00
2018-11-01T00:30:24.985Z,99997.00
2018-11-01T00:32:53.140Z,99999.00
2018-11-01T00:35:20.869Z,99999.00
2018-11-01T00:37:49.003Z,100004.00
2018-11-01T00:40:16.792Z,100002.00
2018-11-01T00:42:44.880Z,100004.00
2018-11-01T00:45:13.288Z,100004.00
2018-11-01T00:47:41.101Z,100010.00
2018-11-01T00:50:11.659Z,100017.00
2018-11-01T00:52:41.782Z,100025.00
2018-11-01T00:55:10.892Z,100010.00
2018-11-01T00:57:39.184Z,100000.00
2018-11-01T01:00:09.182Z,99998.00
2018-11-01T01:02:36.903Z,99998.00
2018-11-01T01:05:06.347Z,100000.00
2018-11-01T01:07:34.078Z,100000.00
2018-11-01T01:10:01.879Z,99998.00
2018-11-01T01:12:29.989Z,99995.00
2018-11-01T01:14:57.768Z,99986.00
2018-11-01T01:17:25.531Z,99985.00
2018-11-01T01:19:53.473Z,99979.00
2018-11-01T01:22:21.209Z,99970.00
2018-11-01T01:24:48.982Z,99973.00
2018-11-01T01:27:16.828Z,99974.00
2018-11-01T01:29:44.595Z,99974.00
2018-11-01T01:32:12.600Z,99971.00
2018-11-01T01:34:40.534Z,99966.00
2018-11-01T01:37:08.196Z,99964.00
2018-11-01T01:39:36.216Z,99961.00
2018-11-01T01:42:03.992Z,99958.00
2018-11-01T01:44:31.829Z,99956.00
2018-11-01T01:46:59.984Z,99954.00
2018-11-01T01:49:27.782Z,99955.00
2018-11-01T01:51:55.568Z,99958.00
2018-11-01T01:54:23.242Z,99963.00
2018-11-01T01:56:51.023Z,99957.00
2018-11-01T01:59:18.769Z,99946.00
2018-11-01T02:01:46.790Z,99946.00
2018-11-01T02:04:14.585Z,99947.00
2018-11-01T02:06:42.329Z,99946.00
2018-11-01T02:09:11.263Z,99937.00
2018-11-01T02:11:40.188Z,99931.00
2018-11-01T02:14:07.958Z,99942.00
2018-11-01T02:16:36.254Z,99941.00
2018-11-01T02:19:04.535Z,99939.00
2018-11-01T02:21:32.257Z,99931.00
2018-11-01T02:24:01.342Z,99925.00
2018-11-01T02:26:29.045Z,99924.00
2018-11-01T02:28:57.771Z,99922.00
2018-11-01T02:31:25.639Z,99922.00
2018-11-01T02:33:53.423Z,99926.00
2018-11-01T02:36:21.197Z,99923.00
2018-11-01T02:38:49.537Z,99914.00
2018-11-01T02:41:17.218Z,99906.00
2018-11-01T02:43:45.010Z,99896.00
2018-11-01T02:46:13.056Z,99891.00
2018-11-01T02:48:40.779Z,99896.00
2018-11-01T02:51:08.544Z,99895.00
2018-11-01T02:53:37.004Z,99887.00
2018-11-01T02:56:05.131Z,99881.00
2018-11-01T02:58:32.840Z,99883.00
2018-11-01T03:01:00.799Z,99885.00
2018-11-01T03:03:28.767Z,99885.00
2018-11-01T03:05:56.598Z,99882.00
2018-11-01T03:08:24.381Z,99884.00
2018-11-01T03:10:52.302Z,99894.00
2018-11-01T03:13:20.006Z,99894.00
2018-11-01T03:15:47.765Z,99893.00
2018-11-01T03:18:15.683Z,99903.00
2018-11-01T03:20:43.502Z,99904.00
2018-11-01T03:23:11.283Z,99905.00
2018-11-01T03:25:39.392Z,99911.00
2018-11-01T03:28:07.207Z,99901.00
2018-11-01T03:30:34.929Z,99903.00
2018-11-01T03:33:21.745Z,99894.00
2018-11-01T03:35:49.498Z,99898.00
2018-11-01T03:38:17.331Z,99897.00
2018-11-01T03:40:45.576Z,99893.00
2018-11-01T03:43:13.409Z,99887.00
2018-11-01T03:45:41.209Z,99883.00
2018-11-01T03:48:39.566Z,99883.00
2018-11-01T03:51:28.506Z,99880.00
2018-11-01T03:53:56.154Z,99885.00
2018-11-01T03:56:23.783Z,99890.00
2018-11-01T03:58:51.572Z,99890.00
2018-11-01T04:01:19.583Z,99881.00
2018-11-01T04:03:47.300Z,99880.00
2018-11-01T04:06:15.109Z,99876.00
2018-11-01T04:08:43.133Z,99869.00
2018-11-01T04:11:11.024Z,99870.00
2018-11-01T04:13:38.873Z,99871.00
2018-11-01T04:16:07.191Z,99874.00
2018-11-01T04:18:34.982Z,99884.00
2018-11-01T04:21:02.749Z,99886.00
2018-11-01T04:23:30.826Z,99878.00
2018-11-01T04:25:58.520Z,99872.00
2018-11-01T04:28:26.347Z,99884.00
2018-11-01T04:30:54.040Z,99883.00
2018-11-01T04:33:21.863Z,99886.00
2018-11-01T04:35:49.451Z,99879.00
2018-11-01T04:38:17.355Z,99875.00
2018-11-01T04:40:45.093Z,99867.00
2018-11-01T04:43:13.027Z,99874.00
2018-11-01T04:45:40.759Z,99872.00
2018-11-01T04:48:28.283Z,99862.00
2018-11-01T04:50:56.214Z,99864.00
2018-11-01T04:53:23.919Z,99867.00
2018-11-01T04:55:52.284Z,99870.00
2018-11-01T04:58:20.003Z,99873.00
2018-11-01T05:00:47.779Z,99868.00
2018-11-01T05:03:16.004Z,99860.00
2018-11-01T05:05:43.680Z,99870.00
2018-11-01T05:08:11.408Z,99867.00
2018-11-01T05:10:40.699Z,99870.00
2018-11-01T05:13:08.401Z,99865.00
2018-11-01T05:15:36.806Z,99857.00
2018-11-01T05:18:05.108Z,99849.00
2018-11-01T05:20:32.762Z,99853.00
2018-11-01T05:23:00.455Z,99853.00
2018-11-01T05:25:28.345Z,99845.00
2018-11-01T05:27:56.063Z,99844.00
2018-11-01T05:30:23.715Z,99841.00
2018-11-01T05:32:51.720Z,99836.00
2018-11-01T05:35:19.380Z,99826.00
2018-11-01T05:37:47.064Z,99833.00
2018-11-01T05:40:15.024Z,99839.00
2018-11-01T05:42:43.090Z,99830.00
2018-11-01T05:45:11.096Z,99825.00
2018-11-01T05:47:39.049Z,99827.00
2018-11-01T05:50:06.924Z,99821.00
2018-11-01T05:52:35.165Z,99814.00
2018-11-01T05:55:03.823Z,99825.00
2018-11-01T05:57:31.620Z,99823.00
2018-11-01T05:59:59.964Z,99811.00
2018-11-01T06:02:32.695Z,99820.00
2018-11-01T06:05:00.677Z,99832.00
2018-11-01T06:07:30.566Z,99838.00
2018-11-01T06:09:58.300Z,99839.00
2018-11-01T06:12:27.242Z,99840.00
2018-11-01T06:14:54.792Z,99836.00
2018-11-01T06:17:22.409Z,99838.00
2018-11-01T06:19:50.080Z,99837.00
2018-11-01T06:22:17.751Z,99827.00
2018-11-01T06:24:45.710Z,99825.00
2018-11-01T06:27:13.427Z,99835.00
2018-11-01T06:29:41.055Z,99827.00
2018-11-01T06:32:08.770Z,99833.00
2018-11-01T06:34:40.603Z,99841.00
2018-11-01T06:37:08.242Z,99834.00
2018-11-01T06:39:35.911Z,99817.00
2018-11-01T06:42:03.827Z,99796.00
2018-11-01T06:44:31.511Z,99800.00
2018-11-01T06:46:59.142Z,99811.00
2018-11-01T06:49:26.986Z,99805.00
2018-11-01T06:51:54.734Z,99810.00
2018-11-01T06:54:22.405Z,99810.00
2018-11-01T06:56:50.408Z,99813.00
2018-11-01T06:59:18.842Z,99809.00
2018-11-01T07:01:46.416Z,99793.00
2018-11-01T07:04:14.663Z,99795.00
2018-11-01T07:06:42.301Z,99794.00
2018-11-01T07:09:11.454Z,99792.00
2018-11-01T07:11:39.380Z,99784.00
2018-11-01T07:14:08.229Z,99770.00
2018-11-01T07:16:35.891Z,99768.00
2018-11-01T07:19:04.122Z,99771.00
2018-11-01T07:21:31.798Z,99765.00
2018-11-01T07:23:59.419Z,99756.00
2018-11-01T07:26:27.215Z,99752.00
2018-11-01T07:28:54.795Z,99740.00
2018-11-01T07:31:22.452Z,99740.00
2018-11-01T07:33:50.104Z,99754.00
2018-11-01T07:36:18.732Z,99753.00
2018-11-01T07:38:46.522Z,99754.00
2018-11-01T07:41:14.116Z,99751.00
2018-11-01T07:43:41.858Z,99744.00
2018-11-01T07:46:09.689Z,99740.00
2018-11-01T07:48:37.451Z,99731.00
2018-11-01T07:51:05.100Z,99721.00
2018-11-01T07:53:33.012Z,99713.00
2018-11-01T07:56:00.684Z,99704.00
2018-11-01T07:58:28.318Z,99714.00
2018-11-01T08:00:56.157Z,99707.00
2018-11-01T08:03:23.668Z,99693.00
2018-11-01T08:05:51.373Z,99700.00
2018-11-01T08:08:19.220Z,99697.00
2018-11-01T08:10:46.673Z,99693.00
2018-11-01T08:13:14.249Z,99693.00
2018-11-01T08:15:42.136Z,99686.00
2018-11-01T08:18:09.706Z,99686.00
2018-11-01T08:20:37.407Z,99694.00
2018-11-01T08:23:05.050Z,99698.00
2018-11-01T08:25:32.660Z,99688.00
2018-11-01T08:28:00.356Z,99696.00
2018-11-01T08:30:28.125Z,99698.00
2018-11-01T08:32:55.688Z,99691.00
2018-11-01T08:35:23.253Z,99691.00
2018-11-01T08:37:51.121Z,99688.00
2018-11-01T08:40:18.669Z,99690.00
2018-11-01T08:42:47.245Z,99678.00
2018-11-01T08:45:15.578Z,99670.00
2018-11-01T08:47:43.194Z,99667.00
2018-11-01T08:50:12.028Z,99659.00
2018-11-01T08:52:40.695Z,99658.00
2018-11-01T08:55:08.942Z,99653.00
2018-11-01T08:57:36.601Z,99661.00
2018-11-01T09:00:05.353Z,99658.00
2018-11-01T09:02:32.951Z,99654.00
2018-11-01T09:05:01.086Z,99657.00
2018-11-01T09:07:29.145Z,99661.00
2018-11-01T09:09:56.747Z,99638.00
2018-11-01T09:12:24.431Z,99638.00
2018-11-01T09:17:19.529Z,99655.00
2018-11-01T09:19:47.414Z,99676.00
2018-11-01T09:22:14.964Z,99673.00
2018-11-01T09:24:42.621Z,99664.00
2018-11-01T09:27:10.579Z,99668.00
2018-11-01T09:29:38.242Z,99664.00
2018-11-01T09:32:05.918Z,99656.00
2018-11-01T09:34:33.932Z,99656.00
2018-11-01T09:37:01.579Z,99646.00
2018-11-01T09:39:29.228Z,99646.00
2018-11-01T09:46:51.844Z,99622.00
2018-11-01T09:49:19.017Z,99604.00
2018-11-01T09:54:13.935Z,99601.00
2018-11-01T09:59:09.335Z,99589.00
2018-11-01T10:01:37.094Z,99605.00
2018-11-01T10:06:32.115Z,99626.00
2018-11-01T10:08:59.660Z,99631.00
2018-11-01T10:11:27.808Z,99639.00
2018-11-01T10:13:55.345Z,99641.00
2018-11-01T10:16:23.111Z,99629.00
2018-11-01T10:21:18.153Z,99603.00
2018-11-01T10:23:45.681Z,99592.00
2018-11-01T10:26:13.339Z,99583.00
2018-11-01T10:28:41.272Z,99586.00
2018-11-01T10:31:08.791Z,99584.00
2018-11-01T10:33:36.520Z,99575.00
2018-11-01T10:36:05.095Z,99581.00
2018-11-01T10:38:32.722Z,99586.00
2018-11-01T10:41:00.396Z,99584.00
2018-11-01T10:45:55.260Z,99584.00
2018-11-01T10:48:22.802Z,99590.00
2018-11-01T10:50:50.724Z,99583.00
2018-11-01T10:53:18.533Z,99571.00
2018-11-01T10:55:46.182Z,99577.00
2018-11-01T10:58:14.008Z,99583.00
2018-11-01T11:00:47.473Z,99580.00
2018-11-01T11:03:14.950Z,99576.00
2018-11-01T11:05:42.585Z,99582.00
2018-11-01T11:08:10.512Z,99579.00
2018-11-01T11:10:38.180Z,99570.00
2018-11-01T11:13:06.201Z,99566.00
2018-11-01T11:18:01.088Z,99562.00
2018-11-01T11:20:28.980Z,99560.00
2018-11-01T11:25:24.258Z,99567.00
2018-11-01T11:27:52.067Z,99572.00
2018-11-01T11:30:19.694Z,99574.00
2018-11-01T11:32:48.108Z,99575.00
2018-11-01T11:37:42.980Z,99591.00
2018-11-01T11:40:11.552Z,99586.00
2018-11-01T11:42:39.464Z,99596.00
2018-11-01T11:45:09.275Z,99605.00
2018-11-01T11:47:36.891Z,99608.00
2018-11-01T11:52:33.745Z,99602.00
2018-11-01T11:55:01.621Z,99591.00
2018-11-01T11:57:29.220Z,99588.00
2018-11-01T11:59:56.799Z,99588.00
2018-11-01T12:02:25.550Z,99583.00
2018-11-01T12:04:53.113Z,99580.00
2018-11-01T12:07:20.757Z,99571.00
2018-11-01T12:09:48.511Z,99553.00
2018-11-01T12:12:16.181Z,99555.00
2018-11-01T12:14:43.823Z,99555.00
2018-11-01T12:19:38.621Z,99542.00
2018-11-01T12:22:06.648Z,99537.00
2018-11-01T12:24:34.180Z,99543.00
2018-11-01T12:27:01.715Z,99528.00
2018-11-01T12:29:29.577Z,99520.00
2018-11-01T12:31:57.173Z,99517.00
2018-11-01T12:34:25.459Z,99529.00
2018-11-01T12:36:54.231Z,99528.00
2018-11-01T12:39:21.761Z,99525.00
2018-11-01T12:41:49.692Z,99525.00
2018-11-01T12:46:45.219Z,99508.00
2018-11-01T12:49:12.940Z,99490.00
2018-11-01T12:54:09.181Z,99469.00
2018-11-01T12:56:36.709Z,99462.00
2018-11-01T13:01:31.989Z,99465.00
2018-11-01T13:03:59.537Z,99463.00
2018-11-01T13:08:54.236Z,99452.00
2018-11-01T13:11:21.773Z,99460.00
2018-11-01T13:16:16.845Z,99466.00
2018-11-01T13:18:44.414Z,99465.00
2018-11-01T13:23:39.408Z,99456.00
2018-11-01T13:28:34.191Z,99476.00
2018-11-01T13:33:29.110Z,99464.00
2018-11-01T13:35:56.691Z,99452.00
2018-11-01T13:40:52.027Z,99487.00
2018-11-01T13:45:47.672Z,99492.00
2018-11-01T13:48:15.348Z,99497.00
2018-11-01T13:53:10.489Z,99488.00
2018-11-01T13:55:38.152Z,99488.00
2018-11-01T13:58:06.194Z,99488.00
2018-11-01T14:00:33.726Z,99492.00
2018-11-01T14:03:01.270Z,99506.00
2018-11-01T14:05:29.100Z,99498.00
2018-11-01T14:07:56.657Z,99508.00
2018-11-01T14:10:24.181Z,99472.00
2018-11-01T14:15:19.596Z,99439.00
2018-11-01T14:17:46.809Z,99462.00
2018-11-01T14:22:42.021Z,99456.00
2018-11-01T14:25:10.709Z,99458.00
2018-11-01T14:27:38.299Z,99439.00
2018-11-01T14:30:10.289Z,99453.00
2018-11-01T14:32:38.171Z,99483.00
2018-11-01T14:35:06.403Z,99507.00
2018-11-01T14:40:01.160Z,99514.00
2018-11-01T14:42:28.707Z,99511.00
2018-11-01T14:47:23.566Z,99493.00
2018-11-01T14:49:54.167Z,99482.00
2018-11-01T14:52:24.018Z,99472.00
2018-11-01T14:54:52.719Z,99466.00
2018-11-01T14:57:20.539Z,99467.00
2018-11-01T15:02:14.225Z,99468.00
2018-11-01T15:04:41.778Z,99473.00
2018-11-01T15:09:36.614Z,99453.00
2018-11-01T15:12:05.704Z,99453.00
2018-11-01T15:17:00.462Z,99465.00
2018-11-01T15:19:28.723Z,99460.00
2018-11-01T15:21:56.506Z,99457.00
2018-11-01T15:24:24.062Z,99459.00
2018-11-01T15:26:51.634Z,99452.00
2018-11-01T15:31:46.253Z,99443.00
2018-11-01T15:34:14.241Z,99454.00
2018-11-01T15:36:41.884Z,99445.00
2018-11-01T15:39:10.804Z,99436.00
2018-11-01T15:41:38.807Z,99441.00
2018-11-01T15:44:06.368Z,99446.00
2018-11-01T15:46:33.985Z,99445.00
2018-11-01T15:49:02.164Z,99449.00
2018-11-01T15:51:30.420Z,99452.00
2018-11-01T15:53:57.921Z,99452.00
2018-11-01T15:56:25.856Z,99449.00
2018-11-01T15:58:53.461Z,99460.00
2018-11-01T16:01:21.047Z,99466.00
2018-11-01T16:06:16.068Z,99469.00
2018-11-01T16:08:43.682Z,99463.00
2018-11-01T16:11:11.762Z,99462.00
2018-11-01T16:13:39.368Z,99461.00
2018-11-01T16:16:07.047Z,99470.00
2018-11-01T16:21:02.271Z,99488.00
2018-11-01T16:23:29.819Z,99489.00
2018-11-01T16:25:57.426Z,99476.00
2018-11-01T16:28:25.513Z,99484.00
2018-11-01T16:30:53.125Z,99492.00
2018-11-01T16:33:20.728Z,99499.00
2018-11-01T16:38:15.655Z,99492.00
2018-11-01T16:40:43.221Z,99485.00
2018-11-01T16:45:37.969Z,99492.00
2018-11-01T16:48:05.711Z,99496.00
2018-11-01T16:50:34.395Z,99505.00
2018-11-01T16:53:02.083Z,99513.00
2018-11-01T16:55:29.755Z,99515.00
2018-11-01T17:02:52.365Z,99519.00
2018-11-01T17:05:19.913Z,99524.00
2018-11-01T17:10:14.726Z,99527.00
2018-11-01T17:12:42.284Z,99522.00
2018-11-01T17:17:39.163Z,99521.00
2018-11-01T17:20:07.403Z,99530.00
2018-11-01T17:22:35.361Z,99530.00
2018-11-01T17:25:03.106Z,99536.00
2018-11-01T17:27:30.892Z,99540.00
2018-11-01T17:32:26.434Z,99554.00
2018-11-01T17:34:53.966Z,99558.00
2018-11-01T17:37:23.202Z,99547.00
2018-11-01T17:39:50.800Z,99541.00
2018-11-01T17:42:18.314Z,99552.00
2018-11-01T17:47:13.044Z,99567.00
2018-11-01T17:49:40.642Z,99571.00
2018-11-01T17:52:09.355Z,99562.00
2018-11-01T17:54:36.681Z,99559.00
2018-11-01T17:57:04.555Z,99558.00
2018-11-01T18:01:59.528Z,99561.00
2018-11-01T18:04:27.163Z,99564.00
2018-11-01T18:06:55.027Z,99566.00
2018-11-01T18:09:22.721Z,99574.00
2018-11-01T18:14:32.544Z,99572.00
2018-11-01T18:17:01.033Z,99581.00
2018-11-01T18:19:30.017Z,99579.00
2018-11-01T18:21:58.444Z,99579.00
2018-11-01T18:24:26.115Z,99579.00
2018-11-01T18:26:54.049Z,99574.00
2018-11-01T18:29:21.707Z,99577.00
2018-11-01T18:31:49.274Z,99566.00
2018-11-01T18:36:44.348Z,99565.00
2018-11-01T18:39:11.947Z,99562.00
2018-11-01T18:44:07.263Z,99562.00
2018-11-01T18:46:35.004Z,99568.00
2018-11-01T18:49:04.097Z,99579.00
2018-11-01T18:51:31.677Z,99580.00
2018-11-01T18:53:59.312Z,99581.00
2018-11-01T18:58:54.969Z,99589.00
2018-11-01T19:01:22.554Z,99594.00
2018-11-01T19:03:50.526Z,99597.00
2018-11-01T19:06:18.138Z,99603.00
2018-11-01T19:08:45.738Z,99612.00
2018-11-01T19:13:40.569Z,99602.00
2018-11-01T19:16:08.473Z,99593.00
2018-11-01T19:21:04.098Z,99590.00
2018-11-01T19:23:31.776Z,99592.00
2018-11-01T19:28:26.628Z,99595.00
2018-11-01T19:33:21.458Z,99606.00
2018-11-01T19:35:49.004Z,99610.00
2018-11-01T19:38:17.026Z,99618.00
2018-11-01T19:40:44.599Z,99624.00
2018-11-01T19:43:12.190Z,99633.00
2018-11-01T19:45:40.081Z,99638.00
2018-11-01T19:48:07.678Z,99647.00
2018-11-01T19:50:35.160Z,99659.00
2018-11-01T19:55:30.844Z,99661.00
2018-11-01T19:57:58.476Z,99664.00
2018-11-01T20:00:27.647Z,99673.00
2018-11-01T20:02:55.362Z,99682.00
2018-11-01T20:05:23.173Z,99691.00
2018-11-01T20:07:52.102Z,99686.00
2018-11-01T20:10:19.841Z,99679.00
2018-11-01T20:12:47.259Z,99694.00
2018-11-01T20:15:15.140Z,99694.00
2018-11-01T20:17:42.851Z,99704.00
2018-11-01T20:20:12.299Z,99707.00
2018-11-01T20:25:08.690Z,99714.00
2018-11-01T20:27:36.623Z,99715.00
2018-11-01T20:30:08.821Z,99719.00
2018-11-01T20:32:36.355Z,99718.00
2018-11-01T20:35:05.334Z,99711.00
2018-11-01T20:39:59.994Z,99739.00
2018-11-01T20:42:27.848Z,99733.00
2018-11-01T20:44:55.437Z,99743.00
2018-11-01T20:47:23.015Z,99755.00
2018-11-01T20:49:50.899Z,99755.00
2018-11-01T20:52:19.340Z,99763.00
2018-11-01T20:54:47.064Z,99767.00
2018-11-01T20:57:15.998Z,99770.00
2018-11-01T20:59:44.290Z,99775.00
2018-11-01T21:02:12.055Z,99777.00
2018-11-01T21:07:08.085Z,99780.00
2018-11-01T21:09:35.788Z,99778.00
2018-11-01T21:14:30.988Z,99770.00
2018-11-01T21:16:58.932Z,99769.00
2018-11-01T21:21:54.376Z,99784.00
2018-11-01T21:24:22.242Z,99782.00
2018-11-01T21:26:50.633Z,99790.00
2018-11-01T21:29:18.871Z,99799.00
2018-11-01T21:31:46.712Z,99803.00
2018-11-01T21:36:42.120Z,99799.00
2018-11-01T21:39:10.048Z,99809.00
2018-11-01T21:41:38.122Z,99814.00
2018-11-01T21:44:05.790Z,99813.00
2018-11-01T21:46:33.445Z,99820.00
2018-11-01T21:51:29.304Z,99813.00
2018-11-01T21:53:57.709Z,99820.00
2018-11-01T21:56:26.261Z,99823.00
2018-11-01T21:58:54.228Z,99834.00
2018-11-01T22:01:21.928Z,99838.00
2018-11-01T22:06:16.955Z,99841.00
2018-11-01T22:08:44.683Z,99839.00
2018-11-01T22:13:40.434Z,99853.00
2018-11-01T22:16:08.496Z,99852.00
2018-11-01T22:21:04.505Z,99861.00
2018-11-01T22:23:32.156Z,99867.00
2018-11-01T22:26:00.178Z,99878.00
2018-11-01T22:28:27.896Z,99887.00
2018-11-01T22:30:55.631Z,99897.00
2018-11-01T22:33:23.549Z,99905.00
2018-11-01T22:35:51.452Z,99915.00
2018-11-01T22:40:46.667Z,99925.00
2018-11-01T22:43:16.121Z,99935.00
2018-11-01T22:48:12.895Z,99938.00
2018-11-01T22:50:40.540Z,99942.00
2018-11-01T22:53:08.345Z,99951.00
2018-11-01T22:55:36.021Z,99955.00
2018-11-01T22:58:03.656Z,99960.00
2018-11-01T23:00:31.745Z,99967.00
2018-11-01T23:03:03.284Z,99975.00
2018-11-01T23:05:30.923Z,99977.00
2018-11-01T23:10:26.292Z,99983.00
2018-11-01T23:12:54.031Z,99988.00
2018-11-01T23:15:21.958Z,99989.00
2018-11-01T23:17:49.625Z,99992.00
2018-11-01T23:20:17.308Z,99999.00
2018-11-01T23:25:13.038Z,100009.00
2018-11-01T23:27:40.679Z,100012.00
2018-11-01T23:30:08.692Z,100016.00
2018-11-01T23:32:36.343Z,100025.00
2018-11-01T23:35:04.324Z,100028.00
2018-11-01T23:40:11.394Z,100024.00
2018-11-01T23:42:45.241Z,100025.00
2018-11-01T23:45:18.647Z,100031.00
2018-11-01T23:47:52.331Z,100033.00
2018-11-01T23:50:28.095Z,100038.00
2018-11-01T23:52:57.811Z,100032.00
2018-11-01T23:55:25.679Z,100028.00
2018-11-01T23:57:53.327Z,100031.00
